createdAt,value
2023-04-13T00:02:20.922Z,7.65
2023-04-13T00:04:50.748Z,7.18
2023-04-13T00:07:18.746Z,7.32
2023-04-13T00:09:47.430Z,7.13
2023-04-13T00:12:21.152Z,7.25
2023-04-13T00:14:50.811Z,7.10
2023-04-13T00:17:17.655Z,7.00
2023-04-13T00:19:48.319Z,7.07
2023-04-13T00:22:15.445Z,7.30
2023-04-13T00:24:44.156Z,6.78
2023-04-13T00:27:11.002Z,6.47
2023-04-13T00:29:38.411Z,6.32
2023-04-13T00:32:05.264Z,6.93
2023-04-13T00:34:32.108Z,6.00
2023-04-13T00:36:58.877Z,6.05
2023-04-13T00:39:27.882Z,6.55
2023-04-13T00:41:54.642Z,6.38
2023-04-13T00:44:21.629Z,5.63
2023-04-13T00:46:50.426Z,6.10
2023-04-13T00:49:18.702Z,5.85
2023-04-13T00:51:46.593Z,5.30
2023-04-13T00:54:14.845Z,5.32
2023-04-13T00:56:45.482Z,5.22
2023-04-13T00:59:12.903Z,5.45
2023-04-13T01:01:46.676Z,5.35
2023-04-13T01:04:14.124Z,5.95
2023-04-13T01:06:51.360Z,5.43
2023-04-13T01:09:28.607Z,6.15
2023-04-13T01:12:05.460Z,6.43
2023-04-13T01:14:41.761Z,6.85
2023-04-13T01:17:17.075Z,7.45
2023-04-13T01:19:56.729Z,7.28
2023-04-13T01:22:28.612Z,7.78
2023-04-13T01:25:38.343Z,7.05
2023-04-13T01:28:32.260Z,6.70
2023-04-13T01:31:01.446Z,6.60
2023-04-13T01:33:30.606Z,7.00
2023-04-13T01:36:00.692Z,7.07
2023-04-13T01:38:27.512Z,6.70
2023-04-13T01:40:54.265Z,7.10
2023-04-13T01:43:21.071Z,7.22
2023-04-13T01:46:11.425Z,6.57
2023-04-13T01:48:47.182Z,6.30
2023-04-13T01:51:19.914Z,6.43
2023-04-13T01:53:51.193Z,5.88
2023-04-13T01:56:20.093Z,6.00
2023-04-13T01:58:50.003Z,6.18
2023-04-13T02:01:17.954Z,6.80
2023-04-13T02:03:45.463Z,6.15
2023-04-13T02:06:12.630Z,6.18
2023-04-13T02:08:40.302Z,6.25
2023-04-13T02:11:07.860Z,5.78
2023-04-13T02:13:34.852Z,6.15
2023-04-13T02:16:02.330Z,6.63
2023-04-13T02:18:29.179Z,5.90
2023-04-13T02:21:08.453Z,5.80
2023-04-13T02:23:36.669Z,5.93
2023-04-13T02:26:04.539Z,5.95
2023-04-13T02:28:31.245Z,5.43
2023-04-13T02:30:59.895Z,5.35
2023-04-13T02:33:31.697Z,5.45
2023-04-13T02:38:28.098Z,5.45
2023-04-13T02:40:55.899Z,5.72
2023-04-13T02:43:22.740Z,5.85
2023-04-13T02:45:50.915Z,5.72
2023-04-13T02:48:17.655Z,5.68
2023-04-13T02:50:44.312Z,6.50
2023-04-13T02:53:11.134Z,5.82
2023-04-13T02:55:38.962Z,6.97
2023-04-13T02:58:06.606Z,6.57
2023-04-13T03:00:33.358Z,6.22
2023-04-13T03:03:00.276Z,6.80
2023-04-13T03:05:28.977Z,6.82
2023-04-13T03:07:57.015Z,6.70
2023-04-13T03:10:24.061Z,6.78
2023-04-13T03:12:50.888Z,6.93
2023-04-13T03:15:18.280Z,7.78
2023-04-13T03:17:45.600Z,7.30
2023-04-13T03:20:13.770Z,8.35
2023-04-13T03:22:40.652Z,7.55
2023-04-13T03:25:08.462Z,7.55
2023-04-13T03:27:36.257Z,7.90
2023-04-13T03:30:03.893Z,7.47
2023-04-13T03:32:32.019Z,7.55
2023-04-13T03:34:58.957Z,7.25
2023-04-13T03:37:30.462Z,7.22
2023-04-13T03:39:58.823Z,7.25
2023-04-13T03:42:25.633Z,7.50
2023-04-13T03:44:52.731Z,6.68
2023-04-13T03:47:19.682Z,7.15
2023-04-13T03:49:46.505Z,7.55
2023-04-13T03:52:13.234Z,8.10
2023-04-13T03:54:40.723Z,7.00
2023-04-13T03:57:07.526Z,8.75
2023-04-13T03:59:34.508Z,8.18
2023-04-13T04:02:02.823Z,8.82
2023-04-13T04:04:30.107Z,9.18
2023-04-13T04:06:57.884Z,8.35
2023-04-13T04:09:25.411Z,8.45
2023-04-13T04:11:52.369Z,8.32
2023-04-13T04:14:20.380Z,9.00
2023-04-13T04:16:47.398Z,8.27
2023-04-13T04:19:14.417Z,8.13
2023-04-13T04:21:44.636Z,8.00
2023-04-13T04:24:12.533Z,8.25
2023-04-13T04:26:40.389Z,9.05
2023-04-13T04:29:08.776Z,7.93
2023-04-13T04:31:37.517Z,7.93
2023-04-13T04:34:04.664Z,7.90
2023-04-13T04:36:31.447Z,8.05
2023-04-13T04:39:02.363Z,9.50
2023-04-13T04:41:31.292Z,7.88
2023-04-13T04:44:02.905Z,8.23
2023-04-13T04:46:29.890Z,7.20
2023-04-13T04:49:00.790Z,7.40
2023-04-13T04:51:28.081Z,6.57
2023-04-13T04:53:54.946Z,7.40
2023-04-13T04:56:21.818Z,6.60
2023-04-13T04:58:48.569Z,7.57
2023-04-13T05:01:15.489Z,6.85
2023-04-13T05:03:42.273Z,6.75
2023-04-13T05:06:09.458Z,6.78
2023-04-13T05:08:36.283Z,6.30
2023-04-13T05:11:06.258Z,7.03
2023-04-13T05:13:33.024Z,5.97
2023-04-13T05:16:00.024Z,5.18
2023-04-13T05:18:27.225Z,5.95
2023-04-13T05:20:53.965Z,5.88
2023-04-13T05:23:20.883Z,5.30
2023-04-13T05:25:47.673Z,5.07
2023-04-13T05:28:14.521Z,5.05
2023-04-13T05:30:41.421Z,5.60
2023-04-13T05:33:09.265Z,5.13
2023-04-13T05:35:37.497Z,5.85
2023-04-13T05:38:04.421Z,6.10
2023-04-13T05:40:33.687Z,5.63
2023-04-13T05:43:00.929Z,5.88
2023-04-13T05:45:28.902Z,5.75
2023-04-13T05:47:56.284Z,5.55
2023-04-13T05:50:23.142Z,5.32
2023-04-13T05:52:49.884Z,5.10
2023-04-13T05:55:16.944Z,4.70
2023-04-13T05:57:43.697Z,4.93
2023-04-13T06:00:11.156Z,4.97
2023-04-13T06:02:40.175Z,4.82
2023-04-13T06:05:08.090Z,5.47
2023-04-13T06:07:35.825Z,5.20
2023-04-13T06:10:02.593Z,4.82
2023-04-13T06:12:30.312Z,5.90
2023-04-13T06:14:57.171Z,4.45
2023-04-13T06:17:24.735Z,3.88
2023-04-13T06:19:51.684Z,4.22
2023-04-13T06:22:18.402Z,4.28
2023-04-13T06:24:45.328Z,3.55
2023-04-13T06:27:12.787Z,3.75
2023-04-13T06:29:40.524Z,4.22
2023-04-13T06:32:08.006Z,3.63
2023-04-13T06:34:35.802Z,4.05
2023-04-13T06:37:03.224Z,3.97
2023-04-13T06:39:32.868Z,3.42
2023-04-13T06:42:01.510Z,3.92
2023-04-13T06:44:28.269Z,4.18
2023-04-13T06:46:56.034Z,3.70
2023-04-13T06:49:22.944Z,4.20
2023-04-13T06:51:49.638Z,4.15
2023-04-13T06:54:16.530Z,3.60
2023-04-13T06:56:43.317Z,3.95
2023-04-13T06:59:10.297Z,3.70
2023-04-13T07:01:37.123Z,3.55
2023-04-13T07:04:06.995Z,3.88
2023-04-13T07:06:34.929Z,3.65
2023-04-13T07:09:01.916Z,3.50
2023-04-13T07:11:28.866Z,3.97
2023-04-13T07:13:56.006Z,3.45
2023-04-13T07:16:22.899Z,3.55
2023-04-13T07:18:49.692Z,3.45
2023-04-13T07:21:16.444Z,3.42
2023-04-13T07:23:43.224Z,3.22
2023-04-13T07:26:14.176Z,3.35
2023-04-13T07:28:41.870Z,3.25
2023-04-13T07:31:08.804Z,3.70
2023-04-13T07:33:35.814Z,2.90
2023-04-13T07:36:02.653Z,3.10
2023-04-13T07:38:29.552Z,3.50
2023-04-13T07:40:56.444Z,3.08
2023-04-13T07:43:26.785Z,3.78
2023-04-13T07:45:53.542Z,2.55
2023-04-13T07:48:20.379Z,2.53
2023-04-13T07:50:47.163Z,2.35
2023-04-13T07:53:14.235Z,2.33
2023-04-13T07:55:41.073Z,2.42
2023-04-13T07:58:07.880Z,2.25
2023-04-13T08:00:34.719Z,2.58
2023-04-13T08:03:02.100Z,2.17
2023-04-13T08:05:29.278Z,1.83
2023-04-13T08:07:56.393Z,2.22
2023-04-13T08:10:26.108Z,2.17
2023-04-13T08:12:52.832Z,2.00
2023-04-13T08:15:19.692Z,2.33
2023-04-13T08:17:47.384Z,2.20
2023-04-13T08:20:14.928Z,1.77
2023-04-13T08:22:42.046Z,2.10
2023-04-13T08:25:10.103Z,1.98
2023-04-13T08:27:37.438Z,1.67
2023-04-13T08:30:07.517Z,2.25
2023-04-13T08:32:34.760Z,2.22
2023-04-13T08:35:06.956Z,2.10
2023-04-13T08:37:34.751Z,1.85
2023-04-13T08:40:02.121Z,2.22
2023-04-13T08:42:30.289Z,1.88
2023-04-13T08:45:01.063Z,2.00
2023-04-13T08:47:28.980Z,2.28
2023-04-13T08:50:01.068Z,2.03
2023-04-13T08:52:29.614Z,2.17
2023-04-13T08:55:02.250Z,1.77
2023-04-13T08:57:34.054Z,1.98
2023-04-13T09:00:01.521Z,2.15
2023-04-13T09:02:32.794Z,1.80
2023-04-13T09:05:05.252Z,1.52
2023-04-13T09:07:34.853Z,2.10
2023-04-13T09:10:05.776Z,1.80
2023-04-13T09:12:32.824Z,2.00
2023-04-13T09:14:59.729Z,1.88
2023-04-13T09:17:32.340Z,2.05
2023-04-13T09:20:23.800Z,2.00
2023-04-13T09:22:51.742Z,1.60
2023-04-13T09:25:25.906Z,1.42
2023-04-13T09:27:53.374Z,1.92
2023-04-13T09:30:24.981Z,1.85
2023-04-13T09:35:33.049Z,1.80
2023-04-13T09:38:00.296Z,1.90
2023-04-13T09:40:27.872Z,1.60
2023-04-13T09:43:07.796Z,1.50
2023-04-13T09:45:39.517Z,2.30
2023-04-13T09:48:25.517Z,1.67
2023-04-13T09:51:04.466Z,1.60
2023-04-13T09:53:49.554Z,1.52
2023-04-13T09:56:17.345Z,1.45
2023-04-13T09:58:45.698Z,1.70
2023-04-13T10:01:15.167Z,1.30
2023-04-13T10:03:42.800Z,1.33
2023-04-13T10:06:10.227Z,1.60
2023-04-13T10:08:39.228Z,1.38
2023-04-13T10:11:14.961Z,1.75
2023-04-13T10:13:53.853Z,1.70
2023-04-13T10:16:54.058Z,1.50
2023-04-13T10:19:24.867Z,1.35
2023-04-13T10:21:52.650Z,1.70
2023-04-13T10:24:20.626Z,1.50
2023-04-13T10:26:47.960Z,1.70
2023-04-13T10:29:16.499Z,1.73
2023-04-13T10:31:49.037Z,1.40
2023-04-13T10:34:30.009Z,1.10
2023-04-13T10:37:03.990Z,2.10
2023-04-13T10:39:33.511Z,1.45
2023-04-13T10:42:12.938Z,1.42
2023-04-13T10:44:48.049Z,1.85
2023-04-13T10:47:23.602Z,1.52
2023-04-13T10:49:52.225Z,1.38
2023-04-13T10:52:19.319Z,1.30
2023-04-13T10:54:46.447Z,1.55
2023-04-13T10:57:13.440Z,2.33
2023-04-13T10:59:58.636Z,1.80
2023-04-13T11:02:31.758Z,1.50
2023-04-13T11:04:59.583Z,1.42
2023-04-13T11:07:26.934Z,1.58
2023-04-13T11:10:03.686Z,1.40
2023-04-13T11:12:31.376Z,2.08
2023-04-13T11:14:59.004Z,1.55
2023-04-13T11:17:25.899Z,2.13
2023-04-13T11:19:54.401Z,1.67
2023-04-13T11:22:23.808Z,1.02
2023-04-13T11:24:51.647Z,1.20
2023-04-13T11:27:18.694Z,1.58
2023-04-13T11:29:45.777Z,2.08
2023-04-13T11:32:19.292Z,1.08
2023-04-13T11:34:49.270Z,1.58
2023-04-13T11:37:16.479Z,1.27
2023-04-13T11:39:43.963Z,1.23
2023-04-13T11:42:12.504Z,1.35
2023-04-13T11:44:39.881Z,1.67
2023-04-13T11:47:08.967Z,1.13
2023-04-13T11:49:36.062Z,1.10
2023-04-13T11:52:03.267Z,1.25
2023-04-13T11:54:30.730Z,1.20
2023-04-13T11:56:57.872Z,0.75
2023-04-13T11:59:25.546Z,0.88
2023-04-13T12:02:01.504Z,0.45
2023-04-13T12:04:38.329Z,0.77
2023-04-13T12:07:11.543Z,0.52
2023-04-13T12:15:15.377Z,0.90
2023-04-13T12:17:58.039Z,0.60
2023-04-13T12:20:39.959Z,0.70
2023-04-13T12:23:24.918Z,0.85
2023-04-13T12:26:25.891Z,0.70
2023-04-13T12:28:57.925Z,0.68
2023-04-13T12:31:25.119Z,0.80
2023-04-13T12:33:51.945Z,0.70
2023-04-13T12:36:19.464Z,0.70
2023-04-13T12:38:46.232Z,0.93
2023-04-13T12:41:13.061Z,0.70
2023-04-13T12:43:39.780Z,0.60
2023-04-13T12:46:06.675Z,0.65
2023-04-13T12:48:33.613Z,0.88
2023-04-13T12:51:00.436Z,0.60
2023-04-13T12:53:27.315Z,0.90
2023-04-13T12:55:54.263Z,0.80
2023-04-13T12:58:21.074Z,1.02
2023-04-13T13:00:47.777Z,1.45
2023-04-13T13:03:15.320Z,0.85
2023-04-13T13:05:42.846Z,0.95
2023-04-13T13:08:09.728Z,1.08
2023-04-13T13:10:41.104Z,1.05
2023-04-13T13:13:07.948Z,1.02
2023-04-13T13:15:34.816Z,1.13
2023-04-13T13:18:04.022Z,1.00
2023-04-13T13:20:31.018Z,1.35
2023-04-13T13:22:58.241Z,1.10
2023-04-13T13:25:25.291Z,0.73
2023-04-13T13:30:21.834Z,1.42
2023-04-13T13:32:48.756Z,1.08
2023-04-13T13:35:15.786Z,1.42
2023-04-13T13:37:42.686Z,1.00
2023-04-13T13:40:13.372Z,0.90
2023-04-13T13:42:51.111Z,0.95
2023-04-13T13:45:18.638Z,1.00
2023-04-13T13:47:53.079Z,1.77
2023-04-13T13:50:21.756Z,0.93
2023-04-13T13:53:02.327Z,0.93
2023-04-13T13:55:31.165Z,1.20
2023-04-13T13:57:58.169Z,1.35
2023-04-13T14:00:25.788Z,1.40
2023-04-13T14:02:53.124Z,1.20
2023-04-13T14:05:21.899Z,1.60
2023-04-13T14:07:48.886Z,0.77
2023-04-13T14:10:16.086Z,0.73
2023-04-13T14:12:47.453Z,0.70
2023-04-13T14:15:16.233Z,0.70
2023-04-13T14:17:43.196Z,0.70
2023-04-13T14:20:11.737Z,1.08
2023-04-13T14:22:40.630Z,0.52
2023-04-13T14:25:11.991Z,0.60
2023-04-13T14:27:39.215Z,0.98
2023-04-13T14:30:06.847Z,0.40
2023-04-13T14:32:33.869Z,1.27
2023-04-13T14:35:01.116Z,1.25
2023-04-13T14:37:28.263Z,0.60
2023-04-13T14:39:55.369Z,1.02
2023-04-13T14:42:24.557Z,0.63
2023-04-13T14:44:54.156Z,0.68
2023-04-13T14:47:21.300Z,0.43
2023-04-13T14:49:48.036Z,0.80
2023-04-13T14:52:15.122Z,1.20
2023-04-13T14:54:42.185Z,0.70
2023-04-13T14:57:10.585Z,1.48
2023-04-13T14:59:38.155Z,0.60
2023-04-13T15:02:06.491Z,0.82
2023-04-13T15:04:33.765Z,0.70
2023-04-13T15:07:00.652Z,1.13
2023-04-13T15:09:28.096Z,0.70
2023-04-13T15:11:54.895Z,0.90
2023-04-13T15:14:22.347Z,0.98
2023-04-13T15:16:49.644Z,0.88
2023-04-13T15:19:16.483Z,0.60
2023-04-13T15:21:43.492Z,0.70
2023-04-13T15:24:13.484Z,0.65
2023-04-13T15:26:41.641Z,0.70
2023-04-13T15:29:09.300Z,0.68
2023-04-13T15:31:38.247Z,0.68
2023-04-13T15:34:06.572Z,0.57
2023-04-13T15:36:33.354Z,0.50
2023-04-13T15:39:00.753Z,0.40
2023-04-13T15:41:27.835Z,0.68
2023-04-13T15:43:56.262Z,0.70
2023-04-13T15:46:23.081Z,0.60
2023-04-13T15:48:50.552Z,0.57
2023-04-13T15:51:19.042Z,0.57
2023-04-13T15:53:45.818Z,0.65
2023-04-13T15:56:12.710Z,0.70
2023-04-13T15:58:42.042Z,1.00
2023-04-13T16:01:11.139Z,0.70
2023-04-13T16:03:39.002Z,0.60
2023-04-13T16:06:06.781Z,0.40
2023-04-13T16:08:33.541Z,0.88
2023-04-13T16:11:01.416Z,0.98
2023-04-13T16:13:44.959Z,1.23
2023-04-13T16:16:14.945Z,0.45
2023-04-13T16:18:41.960Z,1.08
2023-04-13T16:21:10.940Z,0.88
2023-04-13T16:23:38.373Z,1.05
2023-04-13T16:26:06.293Z,0.98
2023-04-13T16:28:34.464Z,0.80
2023-04-13T16:31:01.683Z,1.10
2023-04-13T16:33:29.790Z,1.88
2023-04-13T16:35:56.611Z,0.75
2023-04-13T16:38:23.447Z,0.90
2023-04-13T16:40:50.267Z,1.10
2023-04-13T16:43:17.241Z,0.80
2023-04-13T16:45:44.050Z,0.40
2023-04-13T16:48:10.959Z,0.40
2023-04-13T16:50:37.787Z,1.00
2023-04-13T16:53:04.669Z,0.90
2023-04-13T16:55:31.458Z,0.40
2023-04-13T16:57:58.370Z,1.05
2023-04-13T17:00:25.267Z,0.60
2023-04-13T17:02:52.141Z,0.65
2023-04-13T17:05:19.064Z,0.65
2023-04-13T17:07:48.071Z,0.70
2023-04-13T17:10:15.157Z,0.50
2023-04-13T17:12:41.989Z,1.10
2023-04-13T17:15:09.933Z,0.60
2023-04-13T17:17:38.191Z,0.70
2023-04-13T17:20:06.586Z,1.10
2023-04-13T17:22:33.364Z,0.50
2023-04-13T17:25:01.062Z,0.50
2023-04-13T17:27:28.106Z,0.32
2023-04-13T17:29:55.096Z,0.40
2023-04-13T17:32:22.354Z,0.85
2023-04-13T17:34:50.034Z,0.60
2023-04-13T17:37:17.825Z,0.60
2023-04-13T17:39:50.137Z,0.50
2023-04-13T17:42:18.014Z,0.57
2023-04-13T17:44:45.240Z,1.00
2023-04-13T17:47:11.975Z,0.73
2023-04-13T17:49:38.880Z,0.60
2023-04-13T17:52:06.091Z,1.00
2023-04-13T17:54:33.161Z,1.00
2023-04-13T17:57:01.170Z,0.93
2023-04-13T17:59:28.015Z,1.02
2023-04-13T18:01:56.037Z,0.70
2023-04-13T18:04:22.957Z,1.10
2023-04-13T18:06:49.850Z,1.05
2023-04-13T18:09:16.648Z,0.70
2023-04-13T18:11:43.363Z,0.73
2023-04-13T18:14:12.391Z,0.73
2023-04-13T18:16:39.378Z,0.52
2023-04-13T18:19:06.427Z,0.75
2023-04-13T18:21:34.153Z,0.63
2023-04-13T18:24:02.181Z,0.77
2023-04-13T18:26:29.449Z,0.70
2023-04-13T18:28:56.326Z,0.70
2023-04-13T18:31:23.686Z,0.65
2023-04-13T18:33:50.507Z,1.50
2023-04-13T18:36:18.419Z,0.90
2023-04-13T18:38:46.029Z,0.90
2023-04-13T18:41:13.408Z,0.90
2023-04-13T18:43:40.735Z,1.02
2023-04-13T18:46:08.572Z,1.75
2023-04-13T18:48:36.037Z,2.67
2023-04-13T18:51:03.566Z,2.50
2023-04-13T18:53:31.093Z,2.90
2023-04-13T18:55:58.463Z,2.63
2023-04-13T18:58:26.085Z,2.40
2023-04-13T19:00:53.062Z,2.33
2023-04-13T19:03:19.996Z,2.30
2023-04-13T19:05:47.276Z,2.53
2023-04-13T19:08:15.421Z,2.40
2023-04-13T19:10:42.935Z,1.92
2023-04-13T19:13:10.160Z,2.17
2023-04-13T19:15:37.037Z,1.40
2023-04-13T19:18:06.709Z,1.30
2023-04-13T19:20:33.568Z,2.05
2023-04-13T19:23:00.530Z,2.53
2023-04-13T19:25:27.259Z,2.15
2023-04-13T19:27:54.124Z,2.08
2023-04-13T19:30:21.236Z,1.80
2023-04-13T19:32:49.650Z,1.63
2023-04-13T19:35:17.560Z,2.00
2023-04-13T19:37:47.247Z,1.35
2023-04-13T19:40:14.496Z,1.17
2023-04-13T19:42:42.928Z,1.42
2023-04-13T19:45:10.786Z,1.40
2023-04-13T19:47:38.551Z,1.33
2023-04-13T19:50:07.248Z,1.25
2023-04-13T19:52:34.134Z,1.60
2023-04-13T19:55:01.183Z,1.30
2023-04-13T19:57:28.694Z,1.20
2023-04-13T19:59:55.951Z,1.30
2023-04-13T20:02:23.065Z,1.10
2023-04-13T20:04:52.767Z,1.15
2023-04-13T20:07:19.965Z,1.85
2023-04-13T20:09:46.716Z,1.33
2023-04-13T20:12:13.618Z,1.52
2023-04-13T20:14:42.185Z,1.70
2023-04-13T20:17:09.782Z,1.42
2023-04-13T20:19:37.010Z,1.33
2023-04-13T20:22:04.654Z,1.30
2023-04-13T20:24:31.946Z,1.17
2023-04-13T20:26:59.083Z,1.50
2023-04-13T20:29:27.775Z,1.25
2023-04-13T20:31:54.870Z,1.30
2023-04-13T20:34:22.089Z,1.58
2023-04-13T20:36:49.245Z,1.70
2023-04-13T20:39:25.208Z,1.67
2023-04-13T20:41:55.245Z,1.73
2023-04-13T20:44:27.412Z,2.05
2023-04-13T20:46:54.901Z,1.70
2023-04-13T20:49:24.054Z,1.92
2023-04-13T20:51:55.987Z,2.25
2023-04-13T20:54:23.399Z,2.05
2023-04-13T20:56:50.302Z,1.92
2023-04-13T20:59:18.257Z,2.15
2023-04-13T21:01:45.880Z,2.03
2023-04-13T21:04:12.959Z,2.10
2023-04-13T21:06:40.403Z,2.05
2023-04-13T21:09:08.649Z,2.17
2023-04-13T21:11:35.873Z,1.98
2023-04-13T21:14:02.946Z,1.83
2023-04-13T21:16:30.219Z,1.65
2023-04-13T21:18:57.127Z,2.20
2023-04-13T21:21:25.084Z,2.38
2023-04-13T21:23:53.224Z,1.77
2023-04-13T21:26:20.712Z,1.60
2023-04-13T21:28:47.685Z,1.73
2023-04-13T21:31:14.453Z,1.70
2023-04-13T21:33:41.370Z,1.77
2023-04-13T21:38:40.805Z,1.63
2023-04-13T21:41:17.767Z,1.88
2023-04-13T21:43:44.683Z,1.88
2023-04-13T21:46:12.767Z,2.47
2023-04-13T21:48:39.858Z,1.83
2023-04-13T21:51:08.000Z,2.33
2023-04-13T21:53:36.351Z,2.40
2023-04-13T21:56:03.552Z,1.88
2023-04-13T21:58:44.765Z,1.75
2023-04-13T22:01:12.872Z,2.42
2023-04-13T22:03:46.848Z,1.95
2023-04-13T22:06:14.365Z,2.05
2023-04-13T22:08:41.513Z,1.98
2023-04-13T22:11:08.321Z,1.85
2023-04-13T22:13:35.204Z,1.98
2023-04-13T22:16:02.252Z,2.30
2023-04-13T22:18:29.125Z,2.30
2023-04-13T22:20:55.849Z,2.25
2023-04-13T22:23:22.572Z,2.25
2023-04-13T22:25:58.725Z,2.08
2023-04-13T22:28:28.702Z,2.00
2023-04-13T22:30:55.488Z,2.00
2023-04-13T22:33:22.211Z,2.22
2023-04-13T22:35:50.742Z,1.90
2023-04-13T22:38:18.344Z,2.20
2023-04-13T22:40:45.804Z,2.10
2023-04-13T22:43:12.721Z,2.40
2023-04-13T22:45:39.595Z,2.47
2023-04-13T22:48:06.651Z,2.15
2023-04-13T22:50:33.475Z,2.58
2023-04-13T22:53:00.314Z,2.15
2023-04-13T22:55:27.071Z,2.28
2023-04-13T22:57:53.826Z,2.17
2023-04-13T23:00:21.297Z,2.20
2023-04-13T23:02:50.527Z,2.55
2023-04-13T23:05:17.868Z,2.05
2023-04-13T23:07:44.711Z,1.50
2023-04-13T23:10:11.580Z,2.30
2023-04-13T23:12:38.293Z,2.25
2023-04-13T23:15:05.563Z,1.67
2023-04-13T23:17:32.534Z,1.83
2023-04-13T23:19:59.274Z,1.92
2023-04-13T23:22:25.992Z,2.25
2023-04-13T23:24:53.940Z,2.33
2023-04-13T23:27:20.667Z,2.17
2023-04-13T23:29:50.589Z,2.53
2023-04-13T23:32:17.517Z,2.42
2023-04-13T23:34:44.387Z,2.22
2023-04-13T23:37:11.422Z,2.70
2023-04-13T23:39:38.188Z,2.55
2023-04-13T23:42:05.035Z,2.63
2023-04-13T23:44:31.822Z,2.33
2023-04-13T23:46:58.639Z,2.47
2023-04-13T23:49:25.532Z,2.72
2023-04-13T23:51:52.861Z,2.17
2023-04-13T23:54:19.725Z,2.60
2023-04-13T23:56:46.505Z,2.55
2023-04-13T23:59:13.248Z,3.05
